createdAt,value
2019-02-16T00:02:25.798Z,11.93
2019-02-16T00:05:01.546Z,13.43
2019-02-16T00:07:34.906Z,12.43
2019-02-16T00:10:07.603Z,12.20
2019-02-16T00:12:40.117Z,10.33
2019-02-16T00:15:12.442Z,10.40
2019-02-16T00:17:42.835Z,11.23
2019-02-16T00:20:14.322Z,13.00
2019-02-16T00:22:45.628Z,10.97
2019-02-16T00:25:17.725Z,10.80
2019-02-16T00:27:48.069Z,10.60
2019-02-16T00:30:19.490Z,10.13
2019-02-16T00:32:50.012Z,10.27
2019-02-16T00:35:24.335Z,9.17
2019-02-16T00:38:09.391Z,9.13
2019-02-16T00:41:01.591Z,8.87
2019-02-16T00:43:35.966Z,8.63
2019-02-16T00:46:07.176Z,8.37
2019-02-16T00:48:53.695Z,13.13
2019-02-16T00:51:45.278Z,12.73
2019-02-16T00:54:29.215Z,9.93
2019-02-16T00:57:01.749Z,9.43
2019-02-16T00:59:42.671Z,10.87
2019-02-16T01:02:19.455Z,9.43
2019-02-16T01:04:56.516Z,8.97
2019-02-16T01:07:36.618Z,8.97
2019-02-16T01:10:18.487Z,9.23
2019-02-16T01:12:50.834Z,9.23
2019-02-16T01:15:24.091Z,9.70
2019-02-16T01:18:15.946Z,9.23
2019-02-16T01:21:09.340Z,9.70
2019-02-16T01:23:42.698Z,11.27
2019-02-16T01:26:13.969Z,13.77
2019-02-16T01:28:53.529Z,12.73
2019-02-16T01:31:25.795Z,13.27
2019-02-16T01:33:59.934Z,12.93
2019-02-16T01:36:31.405Z,11.80
2019-02-16T01:39:11.968Z,10.33
2019-02-16T01:41:53.287Z,11.60
2019-02-16T01:44:31.232Z,9.90
2019-02-16T01:47:14.133Z,10.87
2019-02-16T01:49:48.065Z,11.80
2019-02-16T01:52:35.064Z,11.37
2019-02-16T01:55:28.213Z,11.37
2019-02-16T01:58:11.733Z,10.67
2019-02-16T02:00:54.232Z,11.53
2019-02-16T02:03:27.381Z,9.37
2019-02-16T02:06:02.737Z,9.30
2019-02-16T02:08:43.607Z,9.50
2019-02-16T02:11:16.809Z,9.30
2019-02-16T02:13:49.079Z,9.03
2019-02-16T02:16:19.506Z,9.23
2019-02-16T02:18:53.561Z,9.50
2019-02-16T02:21:50.119Z,8.73
2019-02-16T02:24:25.399Z,8.73
2019-02-16T02:26:58.350Z,8.80
2019-02-16T02:29:47.467Z,8.00
2019-02-16T02:32:39.836Z,8.60
2019-02-16T02:35:14.790Z,8.13
2019-02-16T02:37:49.275Z,7.07
2019-02-16T02:40:21.702Z,6.87
2019-02-16T02:42:56.142Z,7.60
2019-02-16T02:45:32.734Z,6.90
2019-02-16T02:48:04.112Z,6.80
2019-02-16T02:50:36.523Z,6.80
2019-02-16T02:53:06.553Z,7.10
2019-02-16T02:55:47.596Z,6.73
2019-02-16T02:58:36.755Z,7.23
2019-02-16T03:01:07.566Z,6.67
2019-02-16T03:04:06.210Z,6.63
2019-02-16T03:07:01.279Z,6.50
2019-02-16T03:09:31.750Z,7.00
2019-02-16T03:12:08.491Z,7.90
2019-02-16T03:14:40.122Z,8.13
2019-02-16T03:17:12.575Z,7.63
2019-02-16T03:19:45.089Z,7.40
2019-02-16T03:22:17.265Z,7.30
2019-02-16T03:24:47.757Z,7.57
2019-02-16T03:28:04.608Z,8.17
2019-02-16T03:31:24.472Z,8.00
2019-02-16T03:34:02.098Z,7.87
2019-02-16T03:36:59.093Z,8.70
2019-02-16T03:39:39.183Z,6.93
2019-02-16T03:42:32.797Z,7.70
2019-02-16T03:45:08.973Z,7.70
2019-02-16T03:47:47.867Z,7.73
2019-02-16T03:50:25.840Z,8.07
2019-02-16T03:53:02.798Z,8.83
2019-02-16T03:55:43.584Z,10.17
2019-02-16T03:58:28.776Z,10.90
2019-02-16T04:01:03.391Z,9.97
2019-02-16T04:03:38.191Z,10.20
2019-02-16T04:06:14.412Z,9.90
2019-02-16T04:09:01.006Z,10.00
2019-02-16T04:11:59.064Z,6.83
2019-02-16T04:18:12.526Z,7.10
2019-02-16T04:21:08.093Z,7.00
2019-02-16T04:23:52.085Z,6.40
2019-02-16T04:26:33.758Z,5.73
2019-02-16T04:29:27.465Z,6.20
2019-02-16T04:32:45.548Z,5.63
2019-02-16T04:35:36.695Z,5.47
2019-02-16T04:38:48.123Z,5.37
2019-02-16T04:41:48.471Z,5.43
2019-02-16T04:44:24.118Z,5.60
2019-02-16T04:47:05.969Z,5.80
2019-02-16T04:49:44.771Z,5.60
2019-02-16T04:52:16.462Z,5.10
2019-02-16T04:54:52.058Z,5.13
2019-02-16T04:57:32.907Z,5.20
2019-02-16T05:00:12.397Z,4.73
2019-02-16T05:03:07.915Z,5.40
2019-02-16T05:05:59.755Z,6.07
2019-02-16T05:08:32.006Z,6.63
2019-02-16T05:11:05.068Z,5.43
2019-02-16T05:13:37.789Z,5.80
2019-02-16T05:16:12.217Z,5.27
2019-02-16T05:18:45.637Z,5.77
2019-02-16T05:21:17.582Z,5.47
2019-02-16T05:23:56.011Z,4.73
2019-02-16T05:26:26.015Z,4.67
2019-02-16T05:28:57.030Z,4.33
2019-02-16T05:31:31.216Z,4.67
2019-02-16T05:34:07.819Z,4.40
2019-02-16T05:36:37.999Z,5.60
2019-02-16T05:39:17.199Z,4.70
2019-02-16T05:41:51.949Z,4.70
2019-02-16T05:44:24.013Z,4.07
2019-02-16T05:47:04.278Z,4.37
2019-02-16T05:49:36.393Z,4.33
2019-02-16T05:52:17.261Z,4.73
2019-02-16T05:54:48.205Z,3.90
2019-02-16T05:57:22.203Z,4.73
2019-02-16T05:59:59.604Z,4.77
2019-02-16T06:02:33.347Z,4.80
2019-02-16T06:05:14.383Z,4.70
2019-02-16T06:08:25.479Z,4.33
2019-02-16T06:11:34.047Z,4.67
2019-02-16T06:14:49.400Z,4.80
2019-02-16T06:17:19.685Z,4.70
2019-02-16T06:20:08.982Z,4.30
2019-02-16T06:23:04.973Z,5.33
2019-02-16T06:25:56.015Z,5.40
2019-02-16T06:28:32.585Z,4.90
2019-02-16T06:31:12.987Z,6.20
2019-02-16T06:34:10.779Z,7.37
2019-02-16T06:36:44.825Z,9.20
2019-02-16T06:39:14.813Z,9.67
2019-02-16T06:41:44.760Z,10.03
2019-02-16T06:44:14.574Z,9.97
2019-02-16T06:46:44.648Z,8.97
2019-02-16T06:49:14.482Z,10.10
2019-02-16T06:51:44.462Z,10.53
2019-02-16T06:54:16.279Z,10.00
2019-02-16T06:57:04.178Z,10.50
2019-02-16T06:59:35.218Z,10.23
2019-02-16T07:02:05.323Z,10.60
2019-02-16T07:04:35.289Z,9.53
2019-02-16T07:07:06.448Z,9.93
2019-02-16T07:09:37.758Z,10.90
2019-02-16T07:12:12.180Z,12.30
2019-02-16T07:14:44.470Z,13.37
2019-02-16T07:17:33.286Z,11.63
2019-02-16T07:20:03.411Z,11.60
2019-02-16T07:22:33.263Z,10.13
2019-02-16T07:25:02.984Z,8.27
2019-02-16T07:27:32.954Z,9.57
2019-02-16T07:30:02.900Z,8.93
2019-02-16T07:32:34.309Z,10.23
2019-02-16T07:35:05.225Z,10.77
2019-02-16T07:37:35.202Z,8.57
2019-02-16T07:40:06.254Z,9.20
2019-02-16T07:42:52.400Z,9.83
2019-02-16T07:45:44.847Z,9.60
2019-02-16T07:48:32.228Z,10.03
2019-02-16T07:51:08.811Z,10.10
2019-02-16T07:54:06.315Z,11.20
2019-02-16T07:56:46.019Z,11.53
2019-02-16T07:59:30.475Z,12.93
2019-02-16T08:02:19.135Z,12.20
2019-02-16T08:05:10.870Z,12.03
2019-02-16T08:07:50.186Z,12.77
2019-02-16T08:10:44.642Z,12.77
2019-02-16T08:13:21.740Z,11.37
2019-02-16T08:16:10.675Z,10.80
2019-02-16T08:19:14.810Z,10.33
2019-02-16T08:22:03.434Z,10.10
2019-02-16T08:24:51.289Z,8.67
2019-02-16T08:27:42.652Z,7.47
2019-02-16T08:30:21.049Z,7.80
2019-02-16T08:33:14.795Z,6.63
2019-02-16T08:36:05.015Z,6.60
2019-02-16T08:38:56.580Z,6.17
2019-02-16T08:41:55.047Z,6.00
2019-02-16T08:44:49.598Z,5.67
2019-02-16T08:47:53.140Z,5.43
2019-02-16T08:50:43.061Z,6.20
2019-02-16T08:53:22.515Z,5.80
2019-02-16T08:56:13.180Z,6.13
2019-02-16T08:59:10.995Z,5.70
2019-02-16T09:02:02.159Z,6.30
2019-02-16T09:04:49.545Z,5.80
2019-02-16T09:07:55.558Z,6.33
2019-02-16T09:10:37.894Z,6.60
2019-02-16T09:13:35.699Z,6.67
2019-02-16T09:16:36.239Z,6.33
2019-02-16T09:19:43.128Z,6.07
2019-02-16T09:22:26.689Z,6.20
2019-02-16T09:25:21.003Z,6.23
2019-02-16T09:28:07.979Z,7.10
2019-02-16T09:30:59.353Z,6.60
2019-02-16T09:33:48.099Z,7.03
2019-02-16T09:36:51.684Z,7.17
2019-02-16T09:39:40.746Z,7.10
2019-02-16T09:42:25.551Z,7.27
2019-02-16T09:45:11.389Z,7.13
2019-02-16T09:47:53.326Z,7.37
2019-02-16T09:50:44.886Z,8.37
2019-02-16T09:53:31.104Z,8.27
2019-02-16T09:56:28.936Z,8.10
2019-02-16T09:59:19.050Z,11.03
2019-02-16T10:02:13.775Z,11.67
2019-02-16T10:04:51.147Z,11.40
2019-02-16T10:07:31.271Z,11.67
2019-02-16T10:10:15.207Z,12.00
2019-02-16T10:12:52.962Z,12.57
2019-02-16T10:15:56.655Z,13.17
2019-02-16T10:18:39.843Z,14.17
2019-02-16T10:21:46.494Z,15.10
2019-02-16T10:24:29.315Z,14.10
2019-02-16T10:27:18.903Z,14.60
2019-02-16T10:30:10.101Z,14.97
2019-02-16T10:33:04.588Z,15.30
2019-02-16T10:36:30.855Z,14.37
2019-02-16T10:39:08.808Z,14.37
2019-02-16T10:41:59.147Z,14.17
2019-02-16T10:45:06.155Z,13.35
2019-02-16T10:47:46.181Z,13.62
2019-02-16T10:50:32.956Z,14.05
2019-02-16T10:53:20.113Z,14.25
2019-02-16T10:56:14.774Z,13.62
2019-02-16T10:59:02.328Z,13.45
2019-02-16T11:01:54.009Z,13.83
2019-02-16T11:04:48.779Z,14.38
2019-02-16T11:07:30.539Z,12.80
2019-02-16T11:10:12.277Z,13.93
2019-02-16T11:13:12.801Z,13.13
2019-02-16T11:16:04.256Z,13.35
2019-02-16T11:18:57.147Z,13.05
2019-02-16T11:21:34.319Z,12.98
2019-02-16T11:24:09.990Z,11.85
2019-02-16T11:26:47.217Z,12.15
2019-02-16T11:29:38.649Z,13.22
2019-02-16T11:32:45.909Z,13.03
2019-02-16T11:35:30.502Z,12.40
2019-02-16T11:38:47.286Z,12.13
2019-02-16T11:41:35.979Z,12.20
2019-02-16T11:44:39.830Z,12.43
2019-02-16T11:47:31.523Z,12.98
2019-02-16T11:50:32.125Z,12.23
2019-02-16T11:53:19.314Z,12.85
2019-02-16T11:56:10.706Z,12.78
2019-02-16T11:58:57.852Z,13.48
2019-02-16T12:01:37.544Z,12.13
2019-02-16T12:04:29.360Z,13.55
2019-02-16T12:08:04.701Z,12.33
2019-02-16T12:13:40.782Z,13.58
2019-02-16T12:16:44.810Z,13.13
2019-02-16T12:19:48.377Z,11.93
2019-02-16T12:22:33.541Z,13.48
2019-02-16T12:25:27.970Z,12.18
2019-02-16T12:31:41.479Z,12.65
2019-02-16T12:34:46.301Z,12.63
2019-02-16T12:37:33.899Z,12.60
2019-02-16T12:43:53.631Z,11.97
2019-02-16T12:47:26.599Z,13.00
2019-02-16T12:50:36.379Z,11.22
2019-02-16T12:53:44.892Z,13.08
2019-02-16T12:56:36.356Z,12.25
2019-02-16T12:59:37.387Z,11.60
2019-02-16T13:02:22.105Z,11.80
2019-02-16T13:05:20.755Z,12.95
2019-02-16T13:08:12.246Z,12.20
2019-02-16T13:11:05.061Z,11.38
2019-02-16T13:13:52.709Z,12.35
2019-02-16T13:16:51.872Z,12.70
2019-02-16T13:19:49.687Z,12.68
2019-02-16T13:22:42.878Z,12.05
2019-02-16T13:25:28.357Z,12.28
2019-02-16T13:28:20.299Z,13.03
2019-02-16T13:31:22.940Z,12.93
2019-02-16T13:34:18.437Z,11.80
2019-02-16T13:37:20.079Z,12.37
2019-02-16T13:40:09.187Z,13.03
2019-02-16T13:43:22.671Z,14.40
2019-02-16T13:46:18.183Z,13.10
2019-02-16T13:49:09.176Z,14.28
2019-02-16T13:52:03.073Z,14.93
2019-02-16T13:55:20.972Z,14.53
2019-02-16T13:58:13.252Z,13.32
2019-02-16T14:01:02.656Z,14.90
2019-02-16T14:07:08.231Z,15.40
2019-02-16T14:10:02.791Z,15.15
2019-02-16T14:12:50.538Z,13.80
2019-02-16T14:15:49.713Z,15.18
2019-02-16T14:18:19.594Z,14.83
2019-02-16T14:21:01.523Z,14.45
2019-02-16T14:23:31.643Z,15.13
2019-02-16T14:26:20.475Z,16.40
2019-02-16T14:28:50.536Z,15.03
2019-02-16T14:31:28.241Z,14.75
2019-02-16T14:33:52.415Z,15.35
2019-02-16T14:36:22.524Z,14.58
2019-02-16T14:39:11.406Z,15.48
2019-02-16T14:41:41.359Z,16.10
2019-02-16T14:44:11.522Z,16.80
2019-02-16T14:46:41.538Z,17.02
2019-02-16T14:49:12.074Z,22.32
2019-02-16T14:51:42.084Z,22.37
2019-02-16T14:54:13.235Z,19.17
2019-02-16T14:56:43.278Z,18.95
2019-02-16T14:59:13.379Z,18.52
2019-02-16T15:01:43.552Z,16.77
2019-02-16T15:04:13.582Z,16.05
2019-02-16T15:06:43.682Z,15.30
2019-02-16T15:09:14.132Z,15.03
2019-02-16T15:11:44.196Z,15.25
2019-02-16T15:14:14.899Z,15.13
2019-02-16T15:16:44.990Z,14.38
2019-02-16T15:19:15.006Z,14.47
2019-02-16T15:21:45.008Z,16.27
2019-02-16T15:24:15.145Z,15.60
2019-02-16T15:26:45.296Z,15.70
2019-02-16T15:29:18.120Z,14.80
2019-02-16T15:31:48.169Z,15.10
2019-02-16T15:34:18.311Z,14.40
2019-02-16T15:36:48.429Z,15.20
2019-02-16T15:39:18.527Z,15.50
2019-02-16T15:41:48.622Z,15.27
2019-02-16T15:44:21.667Z,15.27
2019-02-16T15:46:51.718Z,14.50
2019-02-16T15:49:21.991Z,15.03
2019-02-16T15:51:52.122Z,15.33
2019-02-16T15:54:22.218Z,14.97
2019-02-16T15:56:52.283Z,14.77
2019-02-16T15:59:22.313Z,15.17
2019-02-16T16:01:52.494Z,15.93
2019-02-16T16:04:22.695Z,14.87
2019-02-16T16:06:52.707Z,14.47
2019-02-16T16:15:16.365Z,14.23
2019-02-16T16:23:48.981Z,14.50
2019-02-16T16:30:30.762Z,15.80
2019-02-16T16:33:19.238Z,16.27
2019-02-16T16:36:11.314Z,15.20
2019-02-16T16:39:11.054Z,15.40
2019-02-16T16:41:58.245Z,14.53
2019-02-16T16:48:07.232Z,14.83
2019-02-16T16:51:03.880Z,14.77
2019-02-16T16:53:45.726Z,15.30
2019-02-16T16:56:28.436Z,14.83
2019-02-16T16:59:12.827Z,14.97
2019-02-16T17:02:02.226Z,14.13
2019-02-16T17:04:44.969Z,13.80
2019-02-16T17:07:42.165Z,14.17
2019-02-16T17:10:34.945Z,13.67
2019-02-16T17:13:24.315Z,13.40
2019-02-16T17:16:08.802Z,13.23
2019-02-16T17:19:01.755Z,14.07
2019-02-16T17:22:15.509Z,15.80
2019-02-16T17:25:00.935Z,15.40
2019-02-16T17:27:49.595Z,14.97
2019-02-16T17:30:34.987Z,16.90
2019-02-16T17:33:11.567Z,18.20
2019-02-16T17:36:24.002Z,18.67
2019-02-16T17:39:28.911Z,18.57
2019-02-16T17:42:14.419Z,19.87
2019-02-16T17:45:03.071Z,18.83
2019-02-16T17:47:48.830Z,18.53
2019-02-16T17:50:27.581Z,20.00
2019-02-16T17:53:33.726Z,21.87
2019-02-16T17:56:07.948Z,22.10
2019-02-16T17:58:43.711Z,22.07
2019-02-16T18:01:22.602Z,22.50
2019-02-16T18:04:20.302Z,23.40
2019-02-16T18:07:18.031Z,23.47
2019-02-16T18:10:08.411Z,25.53
2019-02-16T18:13:03.035Z,23.80
2019-02-16T18:15:51.635Z,23.47
2019-02-16T19:13:45.335Z,22.73
2019-02-16T19:19:24.552Z,29.60
2019-02-16T19:22:15.790Z,31.20
2019-02-16T19:25:04.135Z,32.80
2019-02-16T19:27:51.719Z,25.47
2019-02-16T19:30:32.507Z,23.60
2019-02-16T19:33:27.419Z,22.60
2019-02-16T19:36:06.539Z,25.83
2019-02-16T19:39:02.811Z,25.67
2019-02-16T19:41:39.703Z,26.30
2019-02-16T19:47:09.719Z,28.13
2019-02-16T19:50:01.220Z,27.60
2019-02-16T19:52:41.563Z,27.80
2019-02-16T19:55:36.473Z,26.07
2019-02-16T19:58:37.070Z,27.23
2019-02-16T20:01:24.292Z,26.20
2019-02-16T20:04:13.409Z,27.77
2019-02-16T20:07:00.203Z,27.00
2019-02-16T20:09:55.726Z,27.10
2019-02-16T20:12:44.579Z,27.20
2019-02-16T20:15:42.111Z,25.73
2019-02-16T20:18:33.839Z,25.97
2019-02-16T20:21:21.379Z,25.03
2019-02-16T20:24:14.026Z,24.63
2019-02-16T20:27:02.815Z,24.90
2019-02-16T20:29:51.555Z,25.30
2019-02-16T20:32:38.586Z,25.30
2019-02-16T20:35:19.653Z,24.10
2019-02-16T20:38:06.326Z,24.33
2019-02-16T20:40:41.292Z,23.93
2019-02-16T20:43:36.067Z,26.57
2019-02-16T20:46:37.386Z,26.93
2019-02-16T20:49:29.108Z,27.13
2019-02-16T20:52:15.388Z,25.47
2019-02-16T20:54:57.842Z,24.63
2019-02-16T20:57:47.115Z,24.63
2019-02-16T21:00:38.248Z,24.03
2019-02-16T21:03:39.229Z,23.70
2019-02-16T21:06:25.432Z,24.30
2019-02-16T21:16:23.930Z,22.33
2019-02-16T21:19:21.471Z,21.67
2019-02-16T21:22:08.966Z,22.47
2019-02-16T21:24:57.916Z,22.53
2019-02-16T21:27:36.548Z,21.73
2019-02-16T21:30:24.847Z,22.67
2019-02-16T21:33:09.754Z,19.67
2019-02-16T21:36:04.639Z,19.83
2019-02-16T21:38:51.957Z,21.20
2019-02-16T21:41:30.448Z,20.10
2019-02-16T21:44:18.038Z,19.63
2019-02-16T21:46:56.067Z,20.83
2019-02-16T21:49:43.929Z,19.63
2019-02-16T21:52:31.518Z,21.07
2019-02-16T21:55:19.515Z,19.40
2019-02-16T21:58:07.606Z,19.53
2019-02-16T22:00:48.670Z,21.33
2019-02-16T22:03:43.527Z,20.30
2019-02-16T22:06:41.835Z,19.57
2019-02-16T22:09:33.912Z,19.77
2019-02-16T22:12:28.613Z,19.27
2019-02-16T22:14:59.391Z,18.50
2019-02-16T22:17:34.431Z,18.50
2019-02-16T22:20:05.013Z,18.90
2019-02-16T22:22:35.631Z,18.50
2019-02-16T22:25:05.778Z,17.93
2019-02-16T22:27:38.854Z,18.60
2019-02-16T22:30:11.968Z,19.13
2019-02-16T22:32:42.560Z,16.93
2019-02-16T22:35:34.279Z,17.30
2019-02-16T22:38:04.513Z,18.63
2019-02-16T22:40:34.975Z,18.00
2019-02-16T22:43:05.694Z,18.90
2019-02-16T22:45:58.864Z,18.30
2019-02-16T22:48:30.074Z,17.80
2019-02-16T22:51:00.018Z,18.47
2019-02-16T22:53:53.239Z,19.33
2019-02-16T22:56:23.286Z,18.70
2019-02-16T22:58:53.378Z,17.53
2019-02-16T23:01:24.427Z,15.53
2019-02-16T23:03:57.863Z,17.90
2019-02-16T23:06:27.796Z,17.10
2019-02-16T23:08:57.692Z,17.60
2019-02-16T23:11:27.481Z,16.70
2019-02-16T23:13:57.498Z,16.87
2019-02-16T23:16:27.356Z,16.47
2019-02-16T23:18:57.261Z,16.37
2019-02-16T23:21:27.206Z,17.47
2019-02-16T23:23:56.994Z,17.80
2019-02-16T23:26:26.849Z,17.40
2019-02-16T23:28:56.674Z,17.50
2019-02-16T23:31:26.585Z,17.17
2019-02-16T23:33:56.804Z,15.73
2019-02-16T23:36:51.090Z,17.47
2019-02-16T23:39:20.862Z,17.23
2019-02-16T23:41:58.298Z,17.40
2019-02-16T23:44:28.135Z,18.30
2019-02-16T23:46:57.950Z,16.87
2019-02-16T23:49:27.835Z,17.10
2019-02-16T23:51:58.948Z,17.70
2019-02-16T23:54:28.697Z,16.80
2019-02-16T23:56:58.510Z,18.93
2019-02-16T23:59:28.449Z,21.10
